Mekong — WDE6357 — position and weather

sailwx.info

Track history (hours):
 
Tides and Currents Weather Stations Pressure Air Temp Water Temp Dewpoint Dewpoint Depression Visibility Wind Speed Wind Dir Waves Ship Positions

Mekong

Owner: Rubys LLC, North Plainfield, NJ. More information available from US FCC via Universal Licensing System and Coast Guard Vessel Documentation Center.

Last reported at 2015-May-18 05:27 UTC. Time now 2015-May-28 06:03 UTC.
Position N 41°26' W 070°17'.
Warning: this ship's position is 10 days out of date.

Length 26 m.

Type: Pollution control. MMSI: 367379210.

Date/timePositionNaut miles runAvg speedWind from/ knotsBaromVisibWave heightAir tempDewpointWater temp
2015-May-18 05:27N 41°26' W 070°17'8 5.8
2015-May-18 04:04N 41°20' W 070°25'6 6.6
2015-May-18 03:07N 41°14' W 070°25'5 7.7
2015-May-18 02:29N 41°13' W 070°31'8 8.5
2015-May-18 01:33N 41°10' W 070°41'9 8.4
2015-May-18 00:32N 41°06' W 070°50'9 8.4
2015-May-17 23:31N 41°01' W 070°60'8 8.1
2015-May-17 22:34N 40°56' W 071°08'8 8.1
2015-May-17 21:33N 40°52' W 071°17'8 7.7
2015-May-17 20:34N 40°47' W 071°25'7 7.3
2015-May-17 19:34N 40°43' W 071°33'8 7.6
2015-May-17 18:33N 40°39' W 071°42'8 7.6
2015-May-17 17:33N 40°35' W 071°50'8 7.9
2015-May-17 16:33N 40°31' W 071°59'9 8.4
2015-May-17 15:28N 40°26' W 072°09'18 8.9
2015-May-17 13:27N 40°16' W 072°29'  
Track history (hours):
 
Tides and Currents Weather Stations Pressure Air Temp Water Temp Dewpoint Dewpoint Depression Visibility Wind Speed Wind Dir Waves Ship Positions

Mekong

Owner: Rubys LLC, North Plainfield, NJ. More information available from US FCC via Universal Licensing System and Coast Guard Vessel Documentation Center.

Last reported at 2015-May-18 05:27 UTC. Time now 2015-May-28 06:03 UTC.
Position N 41°26' W 070°17'.
Warning: this ship's position is 10 days out of date.

Length 26 m.

Type: Pollution control. MMSI: 367379210.

Date/timePositionNaut miles runAvg speedWind from/ knotsBaromVisibWave heightAir tempDewpointWater temp
2015-May-18 05:27N 41°26' W 070°17'8 5.8
2015-May-18 04:04N 41°20' W 070°25'6 6.6
2015-May-18 03:07N 41°14' W 070°25'5 7.7
2015-May-18 02:29N 41°13' W 070°31'8 8.5
2015-May-18 01:33N 41°10' W 070°41'9 8.4
2015-May-18 00:32N 41°06' W 070°50'9 8.4
2015-May-17 23:31N 41°01' W 070°60'8 8.1
2015-May-17 22:34N 40°56' W 071°08'8 8.1
2015-May-17 21:33N 40°52' W 071°17'8 7.7
2015-May-17 20:34N 40°47' W 071°25'7 7.3
2015-May-17 19:34N 40°43' W 071°33'8 7.6
2015-May-17 18:33N 40°39' W 071°42'8 7.6
2015-May-17 17:33N 40°35' W 071°50'8 7.9
2015-May-17 16:33N 40°31' W 071°59'9 8.4
2015-May-17 15:28N 40°26' W 072°09'18 8.9
2015-May-17 13:27N 40°16' W 072°29'  

Dump ship's entire track history